Time;durP1;ratioP1;P1;durP2;ratioP2;P2;SDS_P1;SDS_P2;PMS_P1;PMS_P2;Temp;Humidity;BMP_temperature;BMP_pressure;BME280_temperature;BME280_humidity;BME280_pressure;Samples;Min_cycle;Max_cycle;Signal;HPM_P1;HPM_P2
2022/12/06 00:02:07;;;;;;;1.65;1.55;;;;;;;1.95;86.61;101397.13;5164529;28;20396;-84
2022/12/06 00:04:38;;;;;;;2.03;1.45;;;;;;;1.98;86.42;101394.59;5164578;28;20030;-84
2022/12/06 00:07:10;;;;;;;1.45;1.35;;;;;;;2.04;86.39;101390.44;5157580;28;20034;-85
2022/12/06 00:09:41;;;;;;;0.88;0.88;;;;;;;2.02;86.69;101388.66;5135592;28;20029;-86
2022/12/06 00:12:11;;;;;;;0.70;0.70;;;;;;;2.06;86.18;101395.63;5146598;28;20026;-83
2022/12/06 00:14:42;;;;;;;1.33;1.33;;;;;;;2.04;86.86;101392.13;5167889;28;20501;-83
2022/12/06 00:17:12;;;;;;;0.88;0.88;;;;;;;2.00;87.13;101392.94;5143912;28;20036;-85
2022/12/06 00:19:43;;;;;;;0.82;0.82;;;;;;;2.02;87.22;101388.66;5146854;28;20023;-86
2022/12/06 00:22:14;;;;;;;1.63;1.52;;;;;;;2.17;86.56;101388.06;5178940;28;20030;-84
2022/12/06 00:24:44;;;;;;;0.50;0.50;;;;;;;2.12;86.75;101398.31;5155798;28;20034;-84
2022/12/06 00:27:15;;;;;;;0.73;0.73;;;;;;;2.13;86.72;101396.63;5132534;28;20247;-82
2022/12/06 00:29:45;;;;;;;3.60;3.30;;;;;;;2.13;86.21;101392.31;5135071;28;20041;-83
2022/12/06 00:32:16;;;;;;;2.20;2.08;;;;;;;2.03;87.69;101387.78;5158879;28;20034;-83
2022/12/06 00:34:46;;;;;;;0.50;0.50;;;;;;;2.11;86.62;101387.94;5132804;28;20030;-83
2022/12/06 00:37:17;;;;;;;0.70;0.70;;;;;;;2.17;87.21;101388.94;5145942;28;20058;-84
2022/12/06 00:39:47;;;;;;;1.70;1.63;;;;;;;2.15;86.73;101385.44;5141022;28;20027;-83
2022/12/06 00:42:21;;;;;;;1.10;1.10;;;;;;;2.09;87.44;101385.34;5130973;28;20065;-83
2022/12/06 00:44:51;;;;;;;0.40;0.40;;;;;;;2.09;87.54;101379.28;5177691;28;20029;-83
2022/12/06 00:47:22;;;;;;;2.20;2.10;;;;;;;2.05;88.25;101383.53;5138632;28;20040;-83
2022/12/06 00:49:52;;;;;;;1.70;1.60;;;;;;;2.00;88.91;101378.25;5131198;28;20034;-83
2022/12/06 00:52:23;;;;;;;0.90;0.90;;;;;;;2.06;88.42;101374.91;5174456;28;20096;-82
2022/12/06 00:54:54;;;;;;;1.20;1.20;;;;;;;2.13;87.76;101375.91;5159667;28;20083;-82
2022/12/06 00:57:26;;;;;;;0.70;0.70;;;;;;;2.18;87.08;101371.69;5133350;28;20025;-83
2022/12/06 00:59:57;;;;;;;0.93;0.93;;;;;;;2.29;86.70;101371.88;5145292;28;20030;-83
2022/12/06 01:02:27;;;;;;;2.53;2.10;;;;;;;2.22;87.21;101377.78;5130190;28;20509;-83
2022/12/06 01:04:58;;;;;;;0.88;0.88;;;;;;;2.27;87.92;101373.56;5131988;28;20061;-84
2022/12/06 01:07:28;;;;;;;0.93;0.93;;;;;;;2.21;88.12;101376.94;5163161;28;20053;-83
2022/12/06 01:09:59;;;;;;;0.70;0.70;;;;;;;2.23;87.79;101376.94;5148280;28;20094;-84
2022/12/06 01:12:30;;;;;;;1.63;1.52;;;;;;;2.23;87.23;101375.25;5132360;28;20276;-83
2022/12/06 01:15:00;;;;;;;1.77;1.67;;;;;;;2.26;87.22;101374.41;5162895;28;20026;-83
2022/12/06 01:17:31;;;;;;;1.17;1.17;;;;;;;2.32;87.20;101377.09;5145497;28;20049;-83
2022/12/06 01:20:02;;;;;;;0.85;0.85;;;;;;;2.34;87.35;101385.78;5140623;28;20681;-84
2022/12/06 01:22:33;;;;;;;1.25;1.20;;;;;;;2.39;86.49;101385.88;5162010;28;20246;-83
2022/12/06 01:25:04;;;;;;;1.20;1.20;;;;;;;2.38;86.56;101382.38;5134694;28;20037;-84
2022/12/06 01:27:35;;;;;;;1.40;1.33;;;;;;;2.35;87.10;101383.22;5141039;28;20452;-84
2022/12/06 01:30:06;;;;;;;0.90;0.90;;;;;;;2.33;87.65;101386.63;5138499;28;20610;-83
2022/12/06 01:32:36;;;;;;;0.65;0.65;;;;;;;2.27;87.95;101384.78;5162979;28;20073;-84
2022/12/06 01:35:07;;;;;;;0.60;0.60;;;;;;;2.26;88.14;101388.22;5182528;28;20022;-83
2022/12/06 01:37:38;;;;;;;0.85;0.85;;;;;;;2.19;88.58;101395.00;5165688;28;20041;-83
2022/12/06 01:40:09;;;;;;;2.22;2.13;;;;;;;2.20;88.58;101394.16;5166343;28;20029;-83
2022/12/06 01:42:40;;;;;;;0.35;0.35;;;;;;;2.23;88.46;101389.88;5143924;28;20537;-85
2022/12/06 01:45:10;;;;;;;0.40;0.40;;;;;;;2.21;88.99;101389.88;5149453;28;20052;-82
2022/12/06 01:47:42;;;;;;;0.65;0.65;;;;;;;2.26;88.73;101387.38;5146882;28;20034;-84
2022/12/06 01:50:23;;;;;;;1.55;1.45;;;;;;;2.25;88.46;101386.47;5149618;28;20034;-83
2022/12/06 01:53:07;;;;;;;1.52;1.42;;;;;;;2.40;87.45;101393.66;5147928;28;20030;-82
2022/12/06 01:55:39;;;;;;;1.30;1.20;;;;;;;2.45;87.49;101392.00;5131763;28;20022;-84
2022/12/06 01:58:19;;;;;;;1.55;1.45;;;;;;;2.47;87.54;101382.53;5148820;28;20038;-84
2022/12/06 02:00:49;;;;;;;0.47;0.47;;;;;;;2.41;87.67;101385.03;5131551;28;20552;-82
2022/12/06 02:03:27;;;;;;;1.15;1.05;;;;;;;2.43;87.72;101370.41;5148667;28;20038;-84
2022/12/06 02:06:00;;;;;;;2.03;1.92;;;;;;;2.38;89.06;101374.63;5163033;28;20105;-84
2022/12/06 02:08:31;;;;;;;1.23;1.23;;;;;;;2.40;88.60;101378.13;5146216;28;20061;-84
2022/12/06 02:11:03;;;;;;;1.02;1.02;;;;;;;2.49;87.88;101379.97;5150069;28;20036;-84
2022/12/06 02:13:35;;;;;;;2.42;2.05;;;;;;;2.47;87.35;101372.19;5163564;28;20046;-83
2022/12/06 02:16:44;;;;;;;2.75;1.83;;;;;;;2.51;86.98;101376.59;5167025;28;20029;-83
2022/12/06 02:19:37;;;;;;;1.40;1.33;;;;;;;2.60;86.40;101378.44;5169733;28;20520;-83
2022/12/06 02:22:32;;;;;;;2.17;2.08;;;;;;;2.65;87.01;101375.94;5154787;28;20025;-84
2022/12/06 02:25:08;;;;;;;1.17;1.17;;;;;;;2.63;86.66;101372.44;5168996;28;20477;-83
2022/12/06 02:27:39;;;;;;;1.08;1.08;;;;;;;2.62;86.90;101368.09;5160486;28;20068;-83
2022/12/06 02:30:12;;;;;;;0.88;0.88;;;;;;;2.65;86.64;101371.59;5174711;28;20030;-83
2022/12/06 02:32:53;;;;;;;2.13;2.03;;;;;;;2.68;86.67;101370.81;5140178;28;20457;-83
2022/12/06 02:35:32;;;;;;;0.75;0.75;;;;;;;2.64;86.83;101369.00;5146671;28;20030;-83
2022/12/06 02:38:12;;;;;;;2.08;1.98;;;;;;;2.70;86.50;101369.09;5158601;28;20070;-83
2022/12/06 02:40:57;;;;;;;0.93;0.90;;;;;;;2.61;87.46;101363.75;5168529;28;20093;-84
2022/12/06 02:43:36;;;;;;;0.70;0.70;;;;;;;2.69;86.66;101364.75;5132008;28;20041;-84
2022/12/06 02:46:10;;;;;;;1.90;1.75;;;;;;;2.74;87.03;101365.72;5150670;28;20030;-82
2022/12/06 02:48:43;;;;;;;0.95;0.95;;;;;;;2.77;86.57;101364.88;5138893;28;20041;-84
2022/12/06 02:51:16;;;;;;;0.50;0.50;;;;;;;2.76;85.87;101358.84;5148220;28;20021;-84
2022/12/06 02:53:52;;;;;;;1.83;1.73;;;;;;;2.78;85.63;101364.91;5149219;28;20038;-83
2022/12/06 02:56:23;;;;;;;0.73;0.73;;;;;;;2.76;86.64;101369.22;5153763;28;20032;-84
2022/12/06 02:58:53;;;;;;;0.77;0.77;;;;;;;2.73;87.20;101369.16;5134932;28;20469;-83
2022/12/06 03:01:29;;;;;;;1.05;1.05;;;;;;;2.74;86.80;101359.66;5146290;28;20029;-83
2022/12/06 03:04:32;;;;;;;1.33;1.33;;;;;;;2.78;86.06;101357.13;5155861;28;20058;-84
2022/12/06 03:07:06;;;;;;;1.70;1.33;;;;;;;2.69;87.83;101359.56;5136581;28;20046;-82
2022/12/06 03:09:58;;;;;;;1.23;0.85;;;;;;;2.73;87.21;101356.19;5157688;28;20045;-84
2022/12/06 03:12:44;;;;;;;2.05;1.95;;;;;;;2.83;86.44;101349.41;5162814;28;20057;-83
2022/12/06 03:15:20;;;;;;;1.35;1.30;;;;;;;2.81;87.03;101352.00;5173361;28;20495;-82
2022/12/06 03:18:20;;;;;;;2.95;2.75;;;;;;;2.76;87.30;101353.66;5134946;28;20046;-83
2022/12/06 03:20:56;;;;;;;1.23;1.13;;;;;;;2.82;86.72;101348.56;5155626;28;20109;-83
2022/12/06 03:23:32;;;;;;;1.35;1.25;;;;;;;2.89;87.39;101348.66;5160642;28;20236;-83
2022/12/06 03:26:04;;;;;;;1.60;0.90;;;;;;;2.92;86.58;101348.69;5145386;28;20073;-83
2022/12/06 03:28:37;;;;;;;1.40;1.35;;;;;;;2.93;86.08;101340.09;5151356;28;20057;-83
2022/12/06 03:31:13;;;;;;;1.00;1.00;;;;;;;2.94;86.46;101349.56;5137530;28;20041;-83
2022/12/06 03:33:50;;;;;;;1.98;1.88;;;;;;;2.92;86.26;101351.28;5168412;28;20050;-83
2022/12/06 03:36:23;;;;;;;3.70;3.28;;;;;;;2.95;86.10;101338.34;5146752;28;20723;-83
2022/12/06 03:38:58;;;;;;;0.98;0.98;;;;;;;2.90;86.30;101342.63;5148594;28;20069;-83
2022/12/06 03:41:39;;;;;;;0.65;0.65;;;;;;;2.93;86.04;101338.34;5135190;28;20088;-82
2022/12/06 03:44:10;;;;;;;0.73;0.73;;;;;;;2.94;86.98;101341.78;5167059;28;20030;-83
2022/12/06 03:46:49;;;;;;;0.82;0.82;;;;;;;2.94;87.00;101342.69;5161862;28;20022;-84
2022/12/06 03:49:46;;;;;;;1.52;1.50;;;;;;;2.91;86.80;101341.78;5137236;28;20045;-84
2022/12/06 03:52:17;;;;;;;0.80;0.80;;;;;;;2.94;87.42;101341.78;5131277;28;20045;-84
2022/12/06 03:54:47;;;;;;;1.27;1.25;;;;;;;2.95;87.33;101336.66;5171576;28;20030;-83
2022/12/06 03:57:18;;;;;;;1.33;1.33;;;;;;;3.06;86.96;101342.00;5161677;28;20038;-83
2022/12/06 03:59:48;;;;;;;2.60;2.40;;;;;;;2.96;86.95;101350.47;5149793;28;20044;-83
2022/12/06 04:02:19;;;;;;;0.98;0.98;;;;;;;3.01;87.51;101343.66;5133662;28;20286;-83
2022/12/06 04:04:49;;;;;;;0.77;0.77;;;;;;;3.02;87.02;101350.56;5162878;28;20034;-83
2022/12/06 04:07:20;;;;;;;2.03;1.92;;;;;;;3.01;86.29;101342.75;5141097;28;20039;-84
2022/12/06 04:09:51;;;;;;;1.27;1.23;;;;;;;3.01;86.23;101343.66;5140172;28;20030;-83
2022/12/06 04:15:13;;;;;;;2.63;2.40;;;;;;;3.08;86.70;101345.47;5148868;28;21528;-85
2022/12/06 04:23:22;;;;;;;2.72;1.98;;;;;;;2.99;88.14;101342.75;5154153;28;20042;-82
2022/12/06 04:25:53;;;;;;;2.15;2.00;;;;;;;3.00;87.90;101341.91;5135702;28;20030;-83
2022/12/06 04:39:42;;;;;;;0.60;0.60;;;;;;;3.05;87.68;101337.66;5171181;28;20038;-84
2022/12/06 04:45:04;;;;;;;2.05;1.95;;;;;;;3.17;87.12;101341.28;5151607;28;20042;-84
2022/12/06 04:47:34;;;;;;;1.20;1.20;;;;;;;3.10;87.53;101346.34;5150516;28;20121;-84
2022/12/06 04:50:05;;;;;;;2.15;2.05;;;;;;;3.15;88.02;101342.13;5145451;28;20628;-85
2022/12/06 04:52:36;;;;;;;0.60;0.60;;;;;;;3.20;87.56;101346.47;5162764;28;20542;-83
2022/12/06 04:55:07;;;;;;;1.27;1.27;;;;;;;3.09;88.41;101347.22;5163167;28;20038;-84
2022/12/06 04:57:37;;;;;;;0.80;0.80;;;;;;;3.10;87.48;101338.56;5165056;28;20038;-83
2022/12/06 05:00:08;;;;;;;1.25;1.23;;;;;;;3.12;87.44;101341.22;5151341;28;20098;-83
2022/12/06 05:02:39;;;;;;;1.73;1.63;;;;;;;3.15;88.19;101336.03;5162691;28;20046;-84
2022/12/06 05:05:09;;;;;;;0.93;0.93;;;;;;;3.09;88.31;101336.84;5145489;28;20424;-84
2022/12/06 05:07:40;;;;;;;1.45;1.35;;;;;;;3.14;87.45;101337.78;5149056;28;20053;-84
2022/12/06 05:10:12;;;;;;;1.20;1.20;;;;;;;3.21;87.46;101335.25;5178041;28;20030;-83
2022/12/06 05:12:42;;;;;;;4.60;4.18;;;;;;;3.20;87.48;101333.50;5178098;28;20136;-84
2022/12/06 05:15:15;;;;;;;1.17;1.15;;;;;;;3.26;87.77;101341.41;5166067;28;20130;-85
2022/12/06 05:17:46;;;;;;;3.17;2.28;;;;;;;3.23;87.18;101336.16;5130183;28;20101;-83
2022/12/06 05:20:17;;;;;;;1.60;1.17;;;;;;;3.18;86.90;101346.47;5148661;28;20029;-85
2022/12/06 05:22:47;;;;;;;1.42;1.42;;;;;;;3.34;88.42;101334.59;5146179;28;20048;-82
2022/12/06 05:25:18;;;;;;;1.38;1.27;;;;;;;3.20;87.78;101343.88;5177439;28;20057;-82
2022/12/06 05:27:48;;;;;;;2.17;2.00;;;;;;;3.23;87.47;101347.38;5124360;28;20670;-81
2022/12/06 05:30:19;;;;;;;3.83;2.47;;;;;;;3.21;87.87;101343.03;5123723;28;20117;-87
2022/12/06 05:32:50;;;;;;;0.95;0.95;;;;;;;3.36;87.28;101329.41;5128920;28;20054;-82
2022/12/06 05:35:20;;;;;;;1.42;1.35;;;;;;;3.25;87.09;101345.69;5154982;28;20029;-83
2022/12/06 05:37:51;;;;;;;1.67;1.58;;;;;;;3.29;86.98;101344.00;5149591;28;20045;-84
2022/12/06 05:40:21;;;;;;;2.70;1.02;;;;;;;3.27;87.48;101335.31;5168497;28;20088;-82
2022/12/06 05:42:52;;;;;;;0.60;0.60;;;;;;;3.25;87.46;101331.88;5133647;28;20060;-82
2022/12/06 05:45:23;;;;;;;0.98;0.98;;;;;;;3.39;87.48;101325.13;5143632;28;20029;-85
2022/12/06 05:47:53;;;;;;;1.55;1.48;;;;;;;3.39;87.95;101335.50;5128908;28;20068;-84
2022/12/06 05:50:24;;;;;;;1.30;1.17;;;;;;;3.29;88.57;101331.03;5149039;28;20049;-83
2022/12/06 05:52:55;;;;;;;1.48;1.38;;;;;;;3.41;87.87;101332.91;5147047;28;20042;-84
2022/12/06 05:55:27;;;;;;;0.95;0.95;;;;;;;3.43;88.47;101331.22;5134817;28;20331;-85
2022/12/06 05:57:57;;;;;;;1.30;1.27;;;;;;;3.34;88.84;101326.81;5157435;28;20053;-87
2022/12/06 06:00:28;;;;;;;2.75;2.55;;;;;;;3.42;88.53;101332.97;5174383;28;20677;-83
2022/12/06 06:02:59;;;;;;;1.60;1.50;;;;;;;3.47;87.99;101339.06;5132233;28;20047;-84
2022/12/06 06:05:30;;;;;;;5.35;2.40;;;;;;;3.38;87.93;101346.72;5133062;28;20140;-85
2022/12/06 06:08:00;;;;;;;0.63;0.63;;;;;;;3.30;88.18;101343.16;5131745;28;20034;-86
2022/12/06 06:10:31;;;;;;;2.53;2.33;;;;;;;3.34;87.35;101342.38;5165596;28;20022;-85
2022/12/06 06:13:03;;;;;;;2.42;2.25;;;;;;;3.33;88.30;101348.41;5157280;28;20084;-84
2022/12/06 06:15:34;;;;;;;2.33;2.22;;;;;;;3.35;87.97;101344.06;5165659;28;20089;-83
2022/12/06 06:18:04;;;;;;;3.38;3.15;;;;;;;3.40;87.68;101352.81;5144435;28;20133;-84
2022/12/06 06:20:35;;;;;;;1.48;1.40;;;;;;;3.43;88.36;101341.59;5146517;28;20052;-82
2022/12/06 06:23:05;;;;;;;2.05;1.95;;;;;;;3.41;87.87;101351.06;5145841;28;20117;-83
2022/12/06 06:25:39;;;;;;;1.73;1.63;;;;;;;3.49;88.40;101343.41;5135020;28;20030;-86
2022/12/06 06:28:09;;;;;;;2.08;1.30;;;;;;;3.54;87.87;101336.53;5138327;28;20493;-84
2022/12/06 06:30:43;;;;;;;2.10;1.98;;;;;;;3.45;88.04;101345.94;5175256;28;20030;-83
2022/12/06 06:33:14;;;;;;;1.67;1.60;;;;;;;3.44;88.21;101344.19;5164961;28;20113;-84
2022/12/06 06:35:45;;;;;;;0.95;0.93;;;;;;;3.44;88.05;101343.34;5172842;28;20113;-84
2022/12/06 06:38:15;;;;;;;1.17;1.15;;;;;;;3.43;88.81;101342.44;5143925;28;20117;-84
2022/12/06 06:40:46;;;;;;;2.42;1.50;;;;;;;3.42;88.31;101340.75;5131463;28;20037;-84
2022/12/06 06:43:19;;;;;;;2.40;2.13;;;;;;;3.49;88.89;101335.63;5138174;28;20467;-84
2022/12/06 06:46:11;;;;;;;1.40;1.38;;;;;;;3.41;88.83;101338.09;5128259;28;20046;-82
2022/12/06 06:48:41;;;;;;;0.55;0.55;;;;;;;3.44;88.16;101339.00;5154626;28;20038;-82
2022/12/06 06:51:13;;;;;;;0.82;0.82;;;;;;;3.57;88.40;101336.56;5145369;28;20805;-84
2022/12/06 06:53:46;;;;;;;1.80;1.70;;;;;;;3.47;87.72;101336.47;5146990;28;20064;-84
2022/12/06 06:56:17;;;;;;;1.65;1.48;;;;;;;3.52;87.38;101346.00;5148193;28;20026;-83
2022/12/06 06:58:47;;;;;;;1.98;1.90;;;;;;;3.50;87.71;101338.22;5142760;28;20030;-83
2022/12/06 07:01:21;;;;;;;0.73;0.73;;;;;;;3.62;88.79;101343.56;5147525;28;20022;-82
2022/12/06 07:03:52;;;;;;;7.90;2.47;;;;;;;3.52;88.73;101340.81;5145323;28;20034;-85
2022/12/06 07:06:23;;;;;;;1.23;1.15;;;;;;;3.55;87.75;101346.06;5177906;28;20115;-84
2022/12/06 07:08:53;;;;;;;2.00;1.83;;;;;;;3.52;87.62;101340.81;5160117;28;20969;-85
2022/12/06 07:11:24;;;;;;;4.15;2.70;;;;;;;3.53;87.93;101335.69;5135087;28;20392;-83
2022/12/06 07:13:54;;;;;;;0.88;0.82;;;;;;;3.60;88.19;101332.28;5151616;28;20042;-84
2022/12/06 07:16:25;;;;;;;1.67;1.58;;;;;;;3.62;87.06;101328.00;5138014;28;20030;-82
2022/12/06 07:18:55;;;;;;;1.10;1.08;;;;;;;3.56;87.18;101334.84;5146216;28;20026;-85
2022/12/06 07:21:26;;;;;;;3.50;3.20;;;;;;;3.57;87.62;101332.25;5140398;28;20053;-86
2022/12/06 07:23:58;;;;;;;1.65;1.55;;;;;;;3.64;88.52;101334.94;5144220;28;20133;-83
2022/12/06 07:26:29;;;;;;;1.17;1.17;;;;;;;3.58;88.51;101328.81;5150836;28;20022;-83
2022/12/06 07:29:00;;;;;;;0.75;0.75;;;;;;;3.61;87.87;101335.75;5151965;28;20276;-86
2022/12/06 07:31:30;;;;;;;2.38;1.85;;;;;;;3.71;88.45;101342.78;5174673;28;20165;-82
2022/12/06 07:34:01;;;;;;;5.07;2.15;;;;;;;3.68;88.08;101334.97;5163749;28;20109;-83
2022/12/06 07:36:32;;;;;;;1.05;1.05;;;;;;;3.70;88.96;101330.66;5147773;28;20026;-87
2022/12/06 07:39:03;;;;;;;0.93;0.93;;;;;;;3.75;87.98;101338.50;5145578;28;20037;-83
2022/12/06 07:47:12;;;;;;;1.75;1.65;;;;;;;3.74;88.75;101348.03;5153622;28;20026;-85
2022/12/06 07:49:43;;;;;;;0.95;0.95;;;;;;;3.71;88.71;101342.78;5140926;28;20088;-86
2022/12/06 07:52:13;;;;;;;0.52;0.52;;;;;;;3.84;88.54;101343.78;5134731;28;20026;-83
2022/12/06 07:54:44;;;;;;;1.83;1.70;;;;;;;3.90;88.49;101343.84;5167070;28;20120;-83
2022/12/06 07:57:14;;;;;;;0.95;0.95;;;;;;;3.84;88.50;101342.94;5163495;28;20037;-84
2022/12/06 07:59:45;;;;;;;1.00;1.00;;;;;;;3.83;88.86;101347.25;5137152;28;20113;-84
2022/12/06 08:02:18;;;;;;;3.85;2.90;;;;;;;3.83;88.22;101347.25;5158959;28;20065;-83
2022/12/06 08:04:48;;;;;;;1.48;1.38;;;;;;;3.89;88.86;101352.50;5145791;28;20030;-83
2022/12/06 08:07:21;;;;;;;0.30;0.30;;;;;;;3.85;89.94;101349.84;5162532;28;20069;-83
2022/12/06 08:09:52;;;;;;;0.95;0.95;;;;;;;3.87;88.82;101348.16;5157215;28;20030;-85
2022/12/06 08:12:22;;;;;;;1.65;1.55;;;;;;;3.90;88.45;101353.38;5144280;28;20038;-86
2022/12/06 08:14:53;;;;;;;0.73;0.73;;;;;;;3.97;89.00;101365.56;5160594;28;20031;-84
2022/12/06 08:17:24;;;;;;;0.93;0.93;;;;;;;3.94;88.64;101362.94;5144984;28;20062;-83
2022/12/06 08:19:55;;;;;;;2.00;1.90;;;;;;;4.05;89.62;101369.13;5162452;28;20030;-85
2022/12/06 08:22:26;;;;;;;1.20;1.15;;;;;;;4.04;89.24;101369.13;5148928;28;20022;-85
2022/12/06 08:24:57;;;;;;;0.65;0.65;;;;;;;3.93;90.87;101368.97;5155710;28;20096;-84
2022/12/06 08:27:27;;;;;;;0.60;0.60;;;;;;;3.97;89.74;101369.91;5144428;28;20045;-83
2022/12/06 08:29:58;;;;;;;0.55;0.55;;;;;;;3.96;91.22;101374.22;5148449;28;20899;-85
2022/12/06 08:32:29;;;;;;;0.60;0.60;;;;;;;3.92;91.17;101373.31;5153725;28;20519;-84
2022/12/06 08:34:59;;;;;;;0.30;0.30;;;;;;;4.05;90.64;101371.72;5144343;28;20034;-84
2022/12/06 08:37:29;;;;;;;0.60;0.60;;;;;;;4.02;90.09;101369.06;5131436;28;20034;-84
2022/12/06 08:40:00;;;;;;;1.08;0.98;;;;;;;4.09;89.73;101365.69;5140657;28;20090;-87
2022/12/06 08:42:30;;;;;;;0.85;0.85;;;;;;;4.05;89.99;101374.31;5161667;28;20034;-86
2022/12/06 08:45:01;;;;;;;0.52;0.52;;;;;;;4.04;90.24;101371.72;5158728;28;20041;-86
2022/12/06 08:47:32;;;;;;;0.38;0.38;;;;;;;4.02;91.10;101366.47;5145788;28;20045;-87
2022/12/06 08:50:03;;;;;;;1.60;1.50;;;;;;;4.06;90.44;101376.06;5138412;28;20053;-86
2022/12/06 08:52:33;;;;;;;0.80;0.80;;;;;;;4.09;90.03;101370.03;5162074;28;20701;-83
2022/12/06 08:55:04;;;;;;;0.30;0.30;;;;;;;4.15;89.99;101382.19;5146711;28;20034;-87
2022/12/06 08:57:35;;;;;;;0.40;0.40;;;;;;;4.10;90.18;101374.38;5163019;28;20164;-84
2022/12/06 09:00:06;;;;;;;0.77;0.77;;;;;;;4.14;89.98;101377.84;5131434;28;20022;-86
2022/12/06 09:02:40;;;;;;;0.77;0.77;;;;;;;4.11;90.63;101378.72;5130219;28;20037;-83
2022/12/06 09:05:11;;;;;;;0.70;0.70;;;;;;;4.14;90.62;101389.09;5145397;28;20208;-84
2022/12/06 09:07:41;;;;;;;0.80;0.80;;;;;;;4.33;89.99;101385.00;5130899;28;20038;-83
2022/12/06 09:10:12;;;;;;;0.80;0.80;;;;;;;4.28;89.51;101383.19;5146201;28;20026;-84
2022/12/06 09:12:43;;;;;;;0.63;0.63;;;;;;;4.18;91.15;101384.81;5132791;28;20042;-84
2022/12/06 09:15:13;;;;;;;0.90;0.90;;;;;;;4.25;90.19;101381.44;5140594;28;20523;-86
2022/12/06 09:17:44;;;;;;;2.30;2.17;;;;;;;4.21;90.92;101390.03;5159848;28;20530;-87
2022/12/06 09:20:17;;;;;;;0.95;0.95;;;;;;;4.39;90.54;101389.34;5152518;28;20057;-88
2022/12/06 09:22:47;;;;;;;0.82;0.82;;;;;;;4.37;89.67;101391.09;5151219;28;20080;-86
2022/12/06 09:25:18;;;;;;;0.60;0.60;;;;;;;4.28;90.67;101386.66;5160594;28;20026;-85
2022/12/06 09:27:49;;;;;;;0.90;0.88;;;;;;;4.34;90.45;101384.09;5121066;28;20129;-84
2022/12/06 09:30:20;;;;;;;1.05;1.05;;;;;;;4.37;90.23;101391.94;5159322;28;20026;-83
2022/12/06 09:32:52;;;;;;;1.08;1.08;;;;;;;4.39;90.21;101392.84;5177625;28;20132;-84
2022/12/06 09:35:23;;;;;;;1.15;0.85;;;;;;;4.40;90.30;101391.97;5150680;28;20865;-88
2022/12/06 09:37:53;;;;;;;0.40;0.40;;;;;;;4.55;89.95;101390.38;5160292;28;20037;-86
2022/12/06 09:40:33;;;;;;;0.60;0.60;;;;;;;4.52;90.51;101392.94;5149035;28;20029;-84
2022/12/06 09:43:28;;;;;;;0.73;0.73;;;;;;;4.50;89.56;101392.06;5138198;28;20082;-85
2022/12/06 09:46:09;;;;;;;0.63;0.63;;;;;;;4.48;89.82;101404.16;5147598;28;20088;-84
2022/12/06 09:48:48;;;;;;;1.10;1.00;;;;;;;4.60;89.88;101401.66;5144283;28;20559;-83
2022/12/06 09:51:37;;;;;;;1.15;1.15;;;;;;;4.48;90.34;101405.03;5148833;28;20042;-87
2022/12/06 09:54:38;;;;;;;1.75;1.65;;;;;;;4.54;90.16;101412.00;5163242;28;20595;-83
2022/12/06 09:57:20;;;;;;;0.75;0.75;;;;;;;4.59;89.85;101415.50;5134890;28;20108;-84
2022/12/06 10:00:05;;;;;;;0.45;0.45;;;;;;;4.58;89.84;101400.81;5144001;28;20088;-85
2022/12/06 10:03:20;;;;;;;0.40;0.40;;;;;;;4.71;89.38;101402.63;5140895;28;20581;-84
2022/12/06 10:06:00;;;;;;;0.50;0.50;;;;;;;4.78;88.57;101402.66;5129769;28;20227;-83
2022/12/06 10:08:44;;;;;;;0.40;0.40;;;;;;;4.82;89.86;101407.91;5142492;28;20044;-84
2022/12/06 10:11:34;;;;;;;1.15;1.15;;;;;;;4.75;88.35;101400.06;5166851;28;20038;-84
2022/12/06 10:14:13;;;;;;;0.70;0.70;;;;;;;4.79;88.74;101407.03;5163759;28;20043;-84
2022/12/06 10:16:58;;;;;;;0.95;0.95;;;;;;;4.65;89.10;101401.69;5132053;28;20036;-86
2022/12/06 10:19:49;;;;;;;0.40;0.40;;;;;;;4.62;89.75;101397.34;5125358;28;20054;-84
2022/12/06 10:22:31;;;;;;;2.28;0.93;;;;;;;4.62;90.19;101392.16;5130080;28;20066;-83
2022/12/06 10:25:23;;;;;;;0.90;0.85;;;;;;;4.79;89.18;101391.41;5164442;28;20672;-86
2022/12/06 10:28:17;;;;;;;0.75;0.75;;;;;;;4.82;89.63;101391.44;5133110;28;20092;-84
2022/12/06 10:30:59;;;;;;;0.93;0.93;;;;;;;4.88;89.12;101386.28;5144175;28;20038;-85
2022/12/06 10:33:44;;;;;;;0.77;0.77;;;;;;;4.82;88.14;101381.91;5153378;28;20035;-86
2022/12/06 10:36:35;;;;;;;0.30;0.30;;;;;;;4.74;89.13;101370.59;5171836;28;20666;-84
2022/12/06 10:39:24;;;;;;;1.08;1.05;;;;;;;4.86;89.12;101373.28;5178128;28;20069;-88
2022/12/06 10:42:12;;;;;;;1.88;1.77;;;;;;;4.93;88.52;101374.19;5161700;28;20573;-83
2022/12/06 10:44:48;;;;;;;0.57;0.57;;;;;;;5.08;87.80;101370.81;5162901;28;20058;-84
2022/12/06 10:47:33;;;;;;;1.02;1.02;;;;;;;4.84;88.04;101372.41;5177515;28;20086;-85
2022/12/06 10:50:13;;;;;;;0.57;0.57;;;;;;;4.89;88.67;101365.50;5160982;28;20036;-86
2022/12/06 10:53:02;;;;;;;0.60;0.60;;;;;;;4.87;88.65;101372.44;5178039;28;20074;-84
2022/12/06 10:55:51;;;;;;;0.50;0.50;;;;;;;4.86;88.59;101365.50;5158609;28;20029;-81
2022/12/06 10:58:45;;;;;;;0.93;0.93;;;;;;;5.02;87.25;101370.78;5162316;28;20073;-82
2022/12/06 11:01:24;;;;;;;0.40;0.40;;;;;;;4.88;87.62;101365.50;5161241;28;20033;-83
2022/12/06 11:04:00;;;;;;;0.40;0.40;;;;;;;4.88;88.34;101366.34;5169430;28;20273;-84
2022/12/06 11:06:36;;;;;;;0.52;0.52;;;;;;;5.06;87.08;101361.28;5178870;28;20021;-83
2022/12/06 11:09:24;;;;;;;0.55;0.55;;;;;;;5.04;87.62;101361.28;5158422;28;20046;-83
2022/12/06 11:11:54;;;;;;;1.20;1.20;;;;;;;5.09;87.16;101356.94;5152844;28;20136;-84
2022/12/06 11:14:36;;;;;;;0.50;0.50;;;;;;;4.99;87.38;101355.16;5148191;28;20113;-83
2022/12/06 11:17:38;;;;;;;0.65;0.65;;;;;;;4.96;87.60;101350.81;5141062;28;20042;-83
2022/12/06 11:20:23;;;;;;;0.52;0.52;;;;;;;5.21;87.04;101358.75;5160846;28;20444;-82
2022/12/06 11:23:09;;;;;;;0.40;0.40;;;;;;;5.06;86.93;101353.47;5158349;28;20071;-83
2022/12/06 11:25:51;;;;;;;0.30;0.30;;;;;;;5.10;87.32;101357.81;5163753;28;20026;-84
2022/12/06 11:28:24;;;;;;;1.00;0.95;;;;;;;5.16;86.61;101355.25;5161832;28;20064;-83
2022/12/06 11:30:56;;;;;;;0.98;0.65;;;;;;;5.12;85.77;101350.88;5164886;28;20590;-83
2022/12/06 11:33:33;;;;;;;0.45;0.45;;;;;;;5.07;86.45;101353.47;5146393;28;20645;-85
2022/12/06 11:36:06;;;;;;;0.57;0.57;;;;;;;5.16;86.27;101352.66;5174526;28;20093;-84
2022/12/06 11:38:45;;;;;;;0.85;0.85;;;;;;;5.07;86.39;101353.47;5129763;28;20489;-83
2022/12/06 11:41:35;;;;;;;0.82;0.82;;;;;;;5.17;86.26;101349.16;5153064;28;20354;-85
2022/12/06 11:44:07;;;;;;;1.73;1.63;;;;;;;5.03;86.19;101347.38;5134956;28;20042;-85
2022/12/06 11:46:38;;;;;;;0.70;0.70;;;;;;;5.11;86.29;101359.56;5134676;28;20083;-82
2022/12/06 11:49:22;;;;;;;1.38;1.27;;;;;;;5.02;85.37;101350.84;5130627;28;20038;-84
2022/12/06 11:51:54;;;;;;;0.80;0.80;;;;;;;5.00;85.92;101352.53;5131842;28;20034;-85
2022/12/06 11:54:33;;;;;;;0.75;0.75;;;;;;;5.17;85.46;101354.38;5163492;28;20026;-83
2022/12/06 11:57:18;;;;;;;0.63;0.63;;;;;;;5.19;86.10;101347.47;5153121;28;20045;-86
2022/12/06 12:00:10;;;;;;;0.38;0.38;;;;;;;5.19;86.22;101344.84;5143410;28;20085;-83
2022/12/06 12:02:43;;;;;;;0.30;0.30;;;;;;;5.23;86.47;101344.03;5163461;28;20045;-83
2022/12/06 12:05:23;;;;;;;0.90;0.90;;;;;;;5.27;86.00;101340.56;5149150;28;20101;-82
2022/12/06 12:07:59;;;;;;;0.40;0.40;;;;;;;5.32;86.32;101344.06;5151812;28;20051;-82
2022/12/06 12:10:37;;;;;;;0.40;0.40;;;;;;;5.30;87.06;101347.50;5147352;28;20033;-82
2022/12/06 12:16:14;;;;;;;0.50;0.50;;;;;;;5.29;86.91;101336.25;5162509;28;20090;-85
2022/12/06 12:19:29;;;;;;;0.90;0.90;;;;;;;5.33;86.86;101347.53;5154491;28;20034;-83
2022/12/06 12:22:14;;;;;;;0.73;0.73;;;;;;;5.39;86.03;101334.53;5120724;28;20085;-85
2022/12/06 12:24:48;;;;;;;0.45;0.45;;;;;;;5.28;84.87;101337.09;5152326;28;20054;-83
2022/12/06 12:27:39;;;;;;;;;;;;;;;5.40;85.13;101331.06;5168066;28;20302;-82
2022/12/06 12:30:20;;;;;;;0.40;0.40;;;;;;;5.32;85.11;101336.25;5148012;28;19956;-86
2022/12/06 12:33:12;;;;;;;0.57;0.57;;;;;;;5.36;85.43;101322.38;5147381;28;20034;-85
2022/12/06 12:36:00;;;;;;;0.50;0.50;;;;;;;5.41;85.54;101326.75;5147999;28;20581;-85
2022/12/06 12:38:49;;;;;;;0.40;0.40;;;;;;;5.52;85.76;101322.44;5147760;28;20065;-86
2022/12/06 12:41:38;;;;;;;0.63;0.63;;;;;;;5.35;85.13;101330.19;5161524;28;20026;-85
2022/12/06 12:44:30;;;;;;;1.05;1.05;;;;;;;5.43;84.77;101325.00;5144766;28;20843;-84